Jinghai, China
Current Conditions -  °F | °C
As of 3:30 AM on Tuesday 23 Dec 2014 (Local Time) from ZBTJ Reporting Station
Haze Haze  
Wind Chill: 32°   Ceiling: Unl
Heat Index: 32°   Visibility: 2.8mi
Dew Point: 10°   Wind: 2mph
Humidity: 41%   Direction: 210°SSW
Pressure: 30.18"   Gusts: NA
Location:  38.93°N, 116.92°E
Report Text: ZBTJ 221930Z 21001MPS 4500 HZ NSC 00/M12 Q1022 NOSIG
Loading
Personal Weather Stations






























Interactive Weather Map New forecast layout! Learn more

10-Day Weather Forecast

Advertisements
Track Severe Weather on mobile